sensor_id;sensor_type;location;lat;lon;timestamp;P1;durP1;ratioP1;P2;durP2;ratioP2
76208;SDS011;64990;51.698;-0.292;2022-12-07T00:02:13;19.33;;;8.20;;
76208;SDS011;64990;51.698;-0.292;2022-12-07T00:04:39;31.02;;;8.30;;
76208;SDS011;64990;51.698;-0.292;2022-12-07T00:07:05;31.85;;;9.98;;
76208;SDS011;64990;51.698;-0.292;2022-12-07T00:09:31;22.23;;;9.30;;
76208;SDS011;64990;51.698;-0.292;2022-12-07T00:11:57;25.80;;;8.45;;
76208;SDS011;64990;51.698;-0.292;2022-12-07T00:14:23;24.02;;;8.73;;
76208;SDS011;64990;51.698;-0.292;2022-12-07T00:16:50;26.75;;;7.28;;
76208;SDS011;64990;51.698;-0.292;2022-12-07T00:19:16;18.30;;;7.80;;
76208;SDS011;64990;51.698;-0.292;2022-12-07T00:21:42;33.90;;;9.15;;
76208;SDS011;64990;51.698;-0.292;2022-12-07T00:24:09;22.75;;;7.13;;
76208;SDS011;64990;51.698;-0.292;2022-12-07T00:26:36;19.08;;;7.68;;
76208;SDS011;64990;51.698;-0.292;2022-12-07T00:29:04;23.48;;;7.55;;
76208;SDS011;64990;51.698;-0.292;2022-12-07T00:31:34;21.27;;;8.13;;
76208;SDS011;64990;51.698;-0.292;2022-12-07T00:34:03;19.70;;;7.68;;
76208;SDS011;64990;51.698;-0.292;2022-12-07T00:36:29;15.82;;;8.52;;
76208;SDS011;64990;51.698;-0.292;2022-12-07T00:38:57;30.33;;;9.80;;
76208;SDS011;64990;51.698;-0.292;2022-12-07T00:41:24;31.92;;;10.63;;
76208;SDS011;64990;51.698;-0.292;2022-12-07T00:43:50;37.17;;;9.70;;
76208;SDS011;64990;51.698;-0.292;2022-12-07T00:46:17;20.05;;;8.35;;
76208;SDS011;64990;51.698;-0.292;2022-12-07T00:48:43;22.55;;;7.35;;
76208;SDS011;64990;51.698;-0.292;2022-12-07T00:51:10;16.20;;;8.35;;
76208;SDS011;64990;51.698;-0.292;2022-12-07T00:53:37;31.08;;;9.55;;
76208;SDS011;64990;51.698;-0.292;2022-12-07T00:56:06;15.35;;;7.28;;
76208;SDS011;64990;51.698;-0.292;2022-12-07T00:58:32;16.65;;;7.55;;
76208;SDS011;64990;51.698;-0.292;2022-12-07T01:01:02;21.25;;;7.85;;
76208;SDS011;64990;51.698;-0.292;2022-12-07T01:03:28;22.02;;;7.63;;
76208;SDS011;64990;51.698;-0.292;2022-12-07T01:05:55;72.28;;;9.00;;
76208;SDS011;64990;51.698;-0.292;2022-12-07T01:08:21;22.95;;;7.45;;
76208;SDS011;64990;51.698;-0.292;2022-12-07T01:10:48;19.75;;;7.00;;
76208;SDS011;64990;51.698;-0.292;2022-12-07T01:13:14;25.15;;;9.57;;
76208;SDS011;64990;51.698;-0.292;2022-12-07T01:15:41;26.98;;;11.15;;
76208;SDS011;64990;51.698;-0.292;2022-12-07T01:18:07;25.35;;;8.05;;
76208;SDS011;64990;51.698;-0.292;2022-12-07T01:20:33;22.80;;;8.43;;
76208;SDS011;64990;51.698;-0.292;2022-12-07T01:22:59;27.90;;;8.07;;
76208;SDS011;64990;51.698;-0.292;2022-12-07T01:25:25;40.72;;;9.82;;
76208;SDS011;64990;51.698;-0.292;2022-12-07T01:27:51;24.98;;;9.00;;
76208;SDS011;64990;51.698;-0.292;2022-12-07T01:30:17;26.42;;;7.57;;
76208;SDS011;64990;51.698;-0.292;2022-12-07T01:32:43;21.58;;;7.88;;
76208;SDS011;64990;51.698;-0.292;2022-12-07T01:35:09;24.02;;;9.82;;
76208;SDS011;64990;51.698;-0.292;2022-12-07T01:37:36;26.25;;;8.57;;
76208;SDS011;64990;51.698;-0.292;2022-12-07T01:40:03;15.05;;;8.40;;
76208;SDS011;64990;51.698;-0.292;2022-12-07T01:42:30;25.45;;;8.88;;
76208;SDS011;64990;51.698;-0.292;2022-12-07T01:47:41;31.60;;;10.00;;
76208;SDS011;64990;51.698;-0.292;2022-12-07T01:50:08;16.90;;;9.05;;
76208;SDS011;64990;51.698;-0.292;2022-12-07T01:52:35;24.42;;;9.52;;
76208;SDS011;64990;51.698;-0.292;2022-12-07T01:55:06;20.80;;;8.80;;
76208;SDS011;64990;51.698;-0.292;2022-12-07T01:57:32;20.90;;;8.02;;
76208;SDS011;64990;51.698;-0.292;2022-12-07T01:59:59;24.00;;;10.57;;
76208;SDS011;64990;51.698;-0.292;2022-12-07T02:02:27;18.33;;;9.35;;
76208;SDS011;64990;51.698;-0.292;2022-12-07T02:04:53;25.13;;;8.98;;
76208;SDS011;64990;51.698;-0.292;2022-12-07T02:07:21;29.38;;;9.20;;
76208;SDS011;64990;51.698;-0.292;2022-12-07T02:09:47;20.60;;;9.05;;
76208;SDS011;64990;51.698;-0.292;2022-12-07T02:12:13;20.98;;;10.55;;
76208;SDS011;64990;51.698;-0.292;2022-12-07T02:14:39;19.48;;;9.23;;
76208;SDS011;64990;51.698;-0.292;2022-12-07T02:24:53;23.83;;;8.65;;
76208;SDS011;64990;51.698;-0.292;2022-12-07T02:27:28;30.73;;;8.77;;
76208;SDS011;64990;51.698;-0.292;2022-12-07T02:32:28;34.92;;;8.70;;
76208;SDS011;64990;51.698;-0.292;2022-12-07T02:35:09;21.58;;;9.32;;
76208;SDS011;64990;51.698;-0.292;2022-12-07T02:40:14;33.72;;;11.25;;
76208;SDS011;64990;51.698;-0.292;2022-12-07T02:42:43;23.05;;;8.60;;
76208;SDS011;64990;51.698;-0.292;2022-12-07T02:45:11;40.80;;;10.45;;
76208;SDS011;64990;51.698;-0.292;2022-12-07T02:47:39;27.77;;;9.00;;
76208;SDS011;64990;51.698;-0.292;2022-12-07T02:50:05;26.27;;;9.32;;
76208;SDS011;64990;51.698;-0.292;2022-12-07T02:52:32;17.90;;;8.45;;
76208;SDS011;64990;51.698;-0.292;2022-12-07T02:54:58;21.40;;;8.80;;
76208;SDS011;64990;51.698;-0.292;2022-12-07T02:57:27;24.63;;;10.73;;
76208;SDS011;64990;51.698;-0.292;2022-12-07T03:00:11;25.58;;;8.27;;
76208;SDS011;64990;51.698;-0.292;2022-12-07T03:13:34;25.17;;;9.30;;
76208;SDS011;64990;51.698;-0.292;2022-12-07T03:16:04;25.58;;;11.20;;
76208;SDS011;64990;51.698;-0.292;2022-12-07T03:18:33;17.70;;;8.48;;
76208;SDS011;64990;51.698;-0.292;2022-12-07T03:21:02;33.05;;;9.27;;
76208;SDS011;64990;51.698;-0.292;2022-12-07T03:23:29;25.95;;;10.18;;
76208;SDS011;64990;51.698;-0.292;2022-12-07T03:25:59;26.60;;;7.93;;
76208;SDS011;64990;51.698;-0.292;2022-12-07T03:28:27;21.80;;;7.80;;
76208;SDS011;64990;51.698;-0.292;2022-12-07T03:36:05;39.72;;;10.05;;
76208;SDS011;64990;51.698;-0.292;2022-12-07T03:38:45;20.38;;;9.50;;
76208;SDS011;64990;51.698;-0.292;2022-12-07T03:41:14;29.95;;;8.18;;
76208;SDS011;64990;51.698;-0.292;2022-12-07T03:43:42;21.42;;;9.02;;
76208;SDS011;64990;51.698;-0.292;2022-12-07T03:46:25;22.50;;;9.40;;
76208;SDS011;64990;51.698;-0.292;2022-12-07T03:48:57;21.35;;;9.10;;
76208;SDS011;64990;51.698;-0.292;2022-12-07T03:51:45;25.00;;;7.78;;
76208;SDS011;64990;51.698;-0.292;2022-12-07T03:54:23;25.10;;;7.80;;
76208;SDS011;64990;51.698;-0.292;2022-12-07T03:56:50;20.45;;;9.20;;
76208;SDS011;64990;51.698;-0.292;2022-12-07T03:59:17;16.30;;;8.02;;
76208;SDS011;64990;51.698;-0.292;2022-12-07T04:01:44;17.25;;;7.03;;
76208;SDS011;64990;51.698;-0.292;2022-12-07T04:04:10;20.20;;;7.72;;
76208;SDS011;64990;51.698;-0.292;2022-12-07T04:06:37;15.45;;;7.25;;
76208;SDS011;64990;51.698;-0.292;2022-12-07T04:09:03;19.33;;;7.90;;
76208;SDS011;64990;51.698;-0.292;2022-12-07T04:11:29;22.15;;;9.65;;
76208;SDS011;64990;51.698;-0.292;2022-12-07T04:13:55;29.55;;;10.13;;
76208;SDS011;64990;51.698;-0.292;2022-12-07T04:16:39;25.27;;;8.70;;
76208;SDS011;64990;51.698;-0.292;2022-12-07T04:19:05;20.88;;;8.63;;
76208;SDS011;64990;51.698;-0.292;2022-12-07T04:21:31;21.70;;;8.10;;
76208;SDS011;64990;51.698;-0.292;2022-12-07T04:23:57;23.98;;;7.82;;
76208;SDS011;64990;51.698;-0.292;2022-12-07T04:26:23;17.95;;;8.60;;
76208;SDS011;64990;51.698;-0.292;2022-12-07T04:28:49;18.42;;;7.57;;
76208;SDS011;64990;51.698;-0.292;2022-12-07T04:31:15;26.77;;;10.35;;
76208;SDS011;64990;51.698;-0.292;2022-12-07T04:33:41;15.20;;;8.48;;
76208;SDS011;64990;51.698;-0.292;2022-12-07T04:36:07;20.48;;;8.13;;
76208;SDS011;64990;51.698;-0.292;2022-12-07T04:38:33;13.00;;;6.15;;
76208;SDS011;64990;51.698;-0.292;2022-12-07T04:41:04;28.17;;;9.35;;
76208;SDS011;64990;51.698;-0.292;2022-12-07T04:43:30;16.27;;;7.80;;
76208;SDS011;64990;51.698;-0.292;2022-12-07T04:45:56;21.50;;;10.02;;
76208;SDS011;64990;51.698;-0.292;2022-12-07T04:48:22;24.67;;;7.88;;
76208;SDS011;64990;51.698;-0.292;2022-12-07T04:50:48;19.52;;;8.07;;
76208;SDS011;64990;51.698;-0.292;2022-12-07T04:53:14;22.25;;;8.82;;
76208;SDS011;64990;51.698;-0.292;2022-12-07T04:55:41;27.48;;;9.85;;
76208;SDS011;64990;51.698;-0.292;2022-12-07T04:58:07;21.52;;;7.97;;
76208;SDS011;64990;51.698;-0.292;2022-12-07T05:00:33;31.80;;;8.35;;
76208;SDS011;64990;51.698;-0.292;2022-12-07T05:02:59;23.83;;;9.80;;
76208;SDS011;64990;51.698;-0.292;2022-12-07T05:05:25;20.50;;;8.63;;
76208;SDS011;64990;51.698;-0.292;2022-12-07T05:07:51;22.48;;;8.35;;
76208;SDS011;64990;51.698;-0.292;2022-12-07T05:10:17;24.27;;;9.80;;
76208;SDS011;64990;51.698;-0.292;2022-12-07T05:12:43;19.65;;;8.70;;
76208;SDS011;64990;51.698;-0.292;2022-12-07T05:15:10;17.77;;;8.43;;
76208;SDS011;64990;51.698;-0.292;2022-12-07T05:17:36;31.95;;;9.77;;
76208;SDS011;64990;51.698;-0.292;2022-12-07T05:20:02;17.50;;;9.10;;
76208;SDS011;64990;51.698;-0.292;2022-12-07T05:22:28;22.38;;;8.90;;
76208;SDS011;64990;51.698;-0.292;2022-12-07T05:24:54;22.58;;;9.77;;
76208;SDS011;64990;51.698;-0.292;2022-12-07T05:27:20;23.40;;;8.52;;
76208;SDS011;64990;51.698;-0.292;2022-12-07T05:29:46;22.30;;;8.88;;
76208;SDS011;64990;51.698;-0.292;2022-12-07T05:32:12;20.92;;;9.80;;
76208;SDS011;64990;51.698;-0.292;2022-12-07T05:34:38;15.27;;;6.93;;
76208;SDS011;64990;51.698;-0.292;2022-12-07T05:37:04;31.92;;;9.65;;
76208;SDS011;64990;51.698;-0.292;2022-12-07T05:39:30;18.88;;;9.38;;
76208;SDS011;64990;51.698;-0.292;2022-12-07T05:41:56;21.55;;;9.32;;
76208;SDS011;64990;51.698;-0.292;2022-12-07T05:44:41;34.03;;;9.43;;
76208;SDS011;64990;51.698;-0.292;2022-12-07T05:47:07;24.10;;;8.18;;
76208;SDS011;64990;51.698;-0.292;2022-12-07T05:49:33;19.55;;;7.93;;
76208;SDS011;64990;51.698;-0.292;2022-12-07T05:51:59;24.17;;;8.63;;
76208;SDS011;64990;51.698;-0.292;2022-12-07T05:54:25;32.55;;;9.82;;
76208;SDS011;64990;51.698;-0.292;2022-12-07T05:56:51;21.73;;;10.55;;
76208;SDS011;64990;51.698;-0.292;2022-12-07T05:59:17;23.45;;;9.30;;
76208;SDS011;64990;51.698;-0.292;2022-12-07T06:01:57;27.45;;;11.40;;
76208;SDS011;64990;51.698;-0.292;2022-12-07T06:04:24;32.97;;;8.82;;
76208;SDS011;64990;51.698;-0.292;2022-12-07T06:06:50;22.30;;;10.57;;
76208;SDS011;64990;51.698;-0.292;2022-12-07T06:09:16;23.45;;;8.85;;
76208;SDS011;64990;51.698;-0.292;2022-12-07T06:11:43;24.42;;;9.40;;
76208;SDS011;64990;51.698;-0.292;2022-12-07T06:14:28;33.95;;;9.40;;
76208;SDS011;64990;51.698;-0.292;2022-12-07T06:16:54;24.15;;;9.27;;
76208;SDS011;64990;51.698;-0.292;2022-12-07T06:19:20;17.38;;;7.80;;
76208;SDS011;64990;51.698;-0.292;2022-12-07T06:21:46;25.33;;;11.68;;
76208;SDS011;64990;51.698;-0.292;2022-12-07T06:24:13;25.58;;;8.27;;
76208;SDS011;64990;51.698;-0.292;2022-12-07T06:26:39;23.15;;;9.35;;
76208;SDS011;64990;51.698;-0.292;2022-12-07T06:29:05;26.85;;;10.20;;
76208;SDS011;64990;51.698;-0.292;2022-12-07T06:31:31;28.33;;;8.95;;
76208;SDS011;64990;51.698;-0.292;2022-12-07T06:34:01;39.45;;;11.30;;
76208;SDS011;64990;51.698;-0.292;2022-12-07T06:36:27;23.23;;;9.38;;
76208;SDS011;64990;51.698;-0.292;2022-12-07T06:38:53;23.58;;;8.80;;
76208;SDS011;64990;51.698;-0.292;2022-12-07T06:41:19;30.70;;;9.55;;
76208;SDS011;64990;51.698;-0.292;2022-12-07T06:43:45;23.85;;;9.63;;
76208;SDS011;64990;51.698;-0.292;2022-12-07T06:46:12;27.88;;;11.23;;
76208;SDS011;64990;51.698;-0.292;2022-12-07T06:48:39;57.10;;;12.00;;
76208;SDS011;64990;51.698;-0.292;2022-12-07T06:51:05;25.90;;;8.77;;
76208;SDS011;64990;51.698;-0.292;2022-12-07T06:53:31;23.98;;;10.88;;
76208;SDS011;64990;51.698;-0.292;2022-12-07T06:55:57;27.23;;;11.23;;
76208;SDS011;64990;51.698;-0.292;2022-12-07T06:58:23;27.88;;;10.55;;
76208;SDS011;64990;51.698;-0.292;2022-12-07T07:00:49;25.20;;;10.40;;
76208;SDS011;64990;51.698;-0.292;2022-12-07T07:03:15;27.45;;;11.45;;
76208;SDS011;64990;51.698;-0.292;2022-12-07T07:05:42;39.70;;;12.98;;
76208;SDS011;64990;51.698;-0.292;2022-12-07T07:08:08;56.95;;;12.60;;
76208;SDS011;64990;51.698;-0.292;2022-12-07T07:10:34;34.30;;;10.73;;
76208;SDS011;64990;51.698;-0.292;2022-12-07T07:13:00;20.13;;;10.85;;
76208;SDS011;64990;51.698;-0.292;2022-12-07T07:15:26;39.78;;;12.13;;
76208;SDS011;64990;51.698;-0.292;2022-12-07T07:17:52;21.52;;;10.57;;
76208;SDS011;64990;51.698;-0.292;2022-12-07T07:20:18;30.45;;;10.65;;
76208;SDS011;64990;51.698;-0.292;2022-12-07T07:22:44;33.28;;;12.45;;
76208;SDS011;64990;51.698;-0.292;2022-12-07T07:25:10;35.70;;;12.50;;
76208;SDS011;64990;51.698;-0.292;2022-12-07T07:27:36;27.15;;;10.43;;
76208;SDS011;64990;51.698;-0.292;2022-12-07T07:30:03;36.13;;;13.75;;
76208;SDS011;64990;51.698;-0.292;2022-12-07T07:32:29;30.95;;;11.30;;
76208;SDS011;64990;51.698;-0.292;2022-12-07T07:34:56;36.30;;;13.02;;
76208;SDS011;64990;51.698;-0.292;2022-12-07T07:37:22;35.33;;;12.43;;
76208;SDS011;64990;51.698;-0.292;2022-12-07T07:39:48;34.92;;;12.02;;
76208;SDS011;64990;51.698;-0.292;2022-12-07T07:42:14;39.40;;;13.10;;
76208;SDS011;64990;51.698;-0.292;2022-12-07T07:44:40;29.85;;;12.70;;
76208;SDS011;64990;51.698;-0.292;2022-12-07T07:47:06;30.20;;;12.63;;
76208;SDS011;64990;51.698;-0.292;2022-12-07T07:49:32;31.52;;;12.20;;
76208;SDS011;64990;51.698;-0.292;2022-12-07T07:51:58;29.33;;;12.05;;
76208;SDS011;64990;51.698;-0.292;2022-12-07T07:54:24;40.15;;;12.15;;
76208;SDS011;64990;51.698;-0.292;2022-12-07T07:56:50;21.98;;;10.68;;
76208;SDS011;64990;51.698;-0.292;2022-12-07T07:59:16;32.40;;;12.52;;
76208;SDS011;64990;51.698;-0.292;2022-12-07T08:01:42;28.05;;;11.55;;
76208;SDS011;64990;51.698;-0.292;2022-12-07T08:04:08;29.25;;;10.13;;
76208;SDS011;64990;51.698;-0.292;2022-12-07T08:06:34;33.25;;;12.70;;
76208;SDS011;64990;51.698;-0.292;2022-12-07T08:09:00;33.10;;;11.93;;
76208;SDS011;64990;51.698;-0.292;2022-12-07T08:11:26;31.13;;;11.70;;
76208;SDS011;64990;51.698;-0.292;2022-12-07T08:13:52;29.90;;;11.73;;
76208;SDS011;64990;51.698;-0.292;2022-12-07T08:16:18;25.67;;;10.70;;
76208;SDS011;64990;51.698;-0.292;2022-12-07T08:18:44;23.98;;;10.15;;
76208;SDS011;64990;51.698;-0.292;2022-12-07T08:21:11;31.73;;;11.32;;
76208;SDS011;64990;51.698;-0.292;2022-12-07T08:23:38;33.58;;;10.30;;
76208;SDS011;64990;51.698;-0.292;2022-12-07T08:26:05;32.97;;;11.68;;
76208;SDS011;64990;51.698;-0.292;2022-12-07T08:28:31;40.60;;;14.63;;
76208;SDS011;64990;51.698;-0.292;2022-12-07T08:31:04;39.67;;;14.23;;
76208;SDS011;64990;51.698;-0.292;2022-12-07T08:33:30;28.88;;;12.63;;
76208;SDS011;64990;51.698;-0.292;2022-12-07T08:36:01;29.83;;;10.02;;
76208;SDS011;64990;51.698;-0.292;2022-12-07T08:38:27;34.90;;;11.38;;
76208;SDS011;64990;51.698;-0.292;2022-12-07T08:40:54;25.13;;;11.27;;
76208;SDS011;64990;51.698;-0.292;2022-12-07T08:43:20;45.40;;;12.18;;
76208;SDS011;64990;51.698;-0.292;2022-12-07T08:45:47;35.70;;;12.70;;
76208;SDS011;64990;51.698;-0.292;2022-12-07T08:48:15;30.52;;;11.13;;
76208;SDS011;64990;51.698;-0.292;2022-12-07T08:50:46;33.85;;;11.52;;
76208;SDS011;64990;51.698;-0.292;2022-12-07T08:53:13;33.92;;;12.98;;
76208;SDS011;64990;51.698;-0.292;2022-12-07T08:55:39;33.20;;;11.77;;
76208;SDS011;64990;51.698;-0.292;2022-12-07T08:58:05;36.00;;;13.00;;
76208;SDS011;64990;51.698;-0.292;2022-12-07T09:00:31;27.92;;;10.75;;
76208;SDS011;64990;51.698;-0.292;2022-12-07T09:02:57;32.38;;;12.70;;
76208;SDS011;64990;51.698;-0.292;2022-12-07T09:05:23;30.67;;;10.93;;
76208;SDS011;64990;51.698;-0.292;2022-12-07T09:07:50;31.83;;;9.75;;
76208;SDS011;64990;51.698;-0.292;2022-12-07T09:10:16;30.27;;;11.10;;
76208;SDS011;64990;51.698;-0.292;2022-12-07T09:12:43;28.02;;;10.98;;
76208;SDS011;64990;51.698;-0.292;2022-12-07T09:15:08;28.48;;;11.60;;
76208;SDS011;64990;51.698;-0.292;2022-12-07T09:17:35;21.27;;;10.35;;
76208;SDS011;64990;51.698;-0.292;2022-12-07T09:20:02;34.28;;;12.18;;
76208;SDS011;64990;51.698;-0.292;2022-12-07T09:22:29;21.90;;;9.43;;
76208;SDS011;64990;51.698;-0.292;2022-12-07T09:24:55;33.22;;;12.35;;
76208;SDS011;64990;51.698;-0.292;2022-12-07T09:27:21;35.92;;;11.20;;
76208;SDS011;64990;51.698;-0.292;2022-12-07T09:29:47;36.55;;;10.77;;
76208;SDS011;64990;51.698;-0.292;2022-12-07T09:32:14;32.08;;;11.13;;
76208;SDS011;64990;51.698;-0.292;2022-12-07T09:34:40;28.80;;;10.23;;
76208;SDS011;64990;51.698;-0.292;2022-12-07T09:37:06;26.73;;;10.85;;
76208;SDS011;64990;51.698;-0.292;2022-12-07T09:39:32;27.70;;;9.88;;
76208;SDS011;64990;51.698;-0.292;2022-12-07T09:41:58;26.90;;;10.63;;
76208;SDS011;64990;51.698;-0.292;2022-12-07T09:44:25;25.23;;;10.15;;
76208;SDS011;64990;51.698;-0.292;2022-12-07T09:46:51;31.95;;;11.00;;
76208;SDS011;64990;51.698;-0.292;2022-12-07T09:49:21;34.65;;;10.50;;
76208;SDS011;64990;51.698;-0.292;2022-12-07T09:51:55;25.75;;;9.15;;
76208;SDS011;64990;51.698;-0.292;2022-12-07T09:54:24;31.67;;;11.48;;
76208;SDS011;64990;51.698;-0.292;2022-12-07T09:56:50;33.45;;;9.38;;
76208;SDS011;64990;51.698;-0.292;2022-12-07T09:59:17;21.30;;;9.38;;
76208;SDS011;64990;51.698;-0.292;2022-12-07T10:01:44;31.95;;;11.02;;
76208;SDS011;64990;51.698;-0.292;2022-12-07T10:04:13;26.25;;;8.77;;
76208;SDS011;64990;51.698;-0.292;2022-12-07T10:06:39;31.88;;;11.43;;
76208;SDS011;64990;51.698;-0.292;2022-12-07T10:09:12;27.48;;;9.55;;
76208;SDS011;64990;51.698;-0.292;2022-12-07T10:14:23;21.30;;;9.63;;
76208;SDS011;64990;51.698;-0.292;2022-12-07T10:16:49;24.23;;;9.90;;
76208;SDS011;64990;51.698;-0.292;2022-12-07T10:19:27;22.10;;;9.90;;
76208;SDS011;64990;51.698;-0.292;2022-12-07T10:24:28;26.58;;;6.85;;
76208;SDS011;64990;51.698;-0.292;2022-12-07T10:26:55;24.23;;;9.95;;
76208;SDS011;64990;51.698;-0.292;2022-12-07T10:29:31;16.05;;;8.38;;
76208;SDS011;64990;51.698;-0.292;2022-12-07T10:31:58;20.42;;;9.23;;
76208;SDS011;64990;51.698;-0.292;2022-12-07T10:34:26;21.75;;;10.00;;
76208;SDS011;64990;51.698;-0.292;2022-12-07T10:36:54;20.55;;;8.25;;
76208;SDS011;64990;51.698;-0.292;2022-12-07T10:39:32;18.63;;;8.85;;
76208;SDS011;64990;51.698;-0.292;2022-12-07T10:42:09;25.40;;;8.93;;
76208;SDS011;64990;51.698;-0.292;2022-12-07T10:57:51;31.05;;;8.20;;
76208;SDS011;64990;51.698;-0.292;2022-12-07T11:00:24;19.60;;;9.10;;
76208;SDS011;64990;51.698;-0.292;2022-12-07T11:03:05;13.40;;;5.93;;
76208;SDS011;64990;51.698;-0.292;2022-12-07T11:10:55;14.77;;;8.13;;
76208;SDS011;64990;51.698;-0.292;2022-12-07T11:13:25;10.88;;;5.60;;
76208;SDS011;64990;51.698;-0.292;2022-12-07T11:21:30;14.50;;;6.05;;
76208;SDS011;64990;51.698;-0.292;2022-12-07T11:24:01;11.70;;;5.85;;
76208;SDS011;64990;51.698;-0.292;2022-12-07T11:31:30;15.77;;;8.75;;
76208;SDS011;64990;51.698;-0.292;2022-12-07T11:39:03;13.70;;;6.15;;
76208;SDS011;64990;51.698;-0.292;2022-12-07T11:41:31;21.70;;;7.07;;
76208;SDS011;64990;51.698;-0.292;2022-12-07T11:44:07;20.00;;;6.55;;
76208;SDS011;64990;51.698;-0.292;2022-12-07T11:51:43;14.82;;;6.80;;
76208;SDS011;64990;51.698;-0.292;2022-12-07T11:54:16;15.68;;;7.22;;
76208;SDS011;64990;51.698;-0.292;2022-12-07T11:56:42;19.42;;;8.02;;
76208;SDS011;64990;51.698;-0.292;2022-12-07T11:59:13;21.92;;;6.55;;
76208;SDS011;64990;51.698;-0.292;2022-12-07T12:01:44;13.88;;;6.15;;
76208;SDS011;64990;51.698;-0.292;2022-12-07T12:06:40;14.93;;;6.97;;
76208;SDS011;64990;51.698;-0.292;2022-12-07T12:11:44;23.25;;;8.85;;
76208;SDS011;64990;51.698;-0.292;2022-12-07T12:22:41;21.10;;;6.57;;
76208;SDS011;64990;51.698;-0.292;2022-12-07T12:25:20;18.10;;;8.05;;
76208;SDS011;64990;51.698;-0.292;2022-12-07T12:27:47;25.58;;;8.98;;
76208;SDS011;64990;51.698;-0.292;2022-12-07T12:33:13;13.15;;;6.60;;
76208;SDS011;64990;51.698;-0.292;2022-12-07T12:35:40;23.95;;;6.60;;
76208;SDS011;64990;51.698;-0.292;2022-12-07T12:40:47;11.18;;;5.80;;
76208;SDS011;64990;51.698;-0.292;2022-12-07T12:48:44;14.05;;;6.45;;
76208;SDS011;64990;51.698;-0.292;2022-12-07T12:54:03;16.13;;;6.72;;
76208;SDS011;64990;51.698;-0.292;2022-12-07T12:56:38;9.73;;;6.13;;
76208;SDS011;64990;51.698;-0.292;2022-12-07T12:59:26;14.32;;;7.43;;
76208;SDS011;64990;51.698;-0.292;2022-12-07T13:02:08;27.10;;;6.63;;
76208;SDS011;64990;51.698;-0.292;2022-12-07T13:04:48;16.08;;;7.63;;
76208;SDS011;64990;51.698;-0.292;2022-12-07T13:07:47;16.20;;;6.70;;
76208;SDS011;64990;51.698;-0.292;2022-12-07T13:10:01;15.15;;;6.88;;
76208;SDS011;64990;51.698;-0.292;2022-12-07T13:12:28;17.05;;;8.25;;
76208;SDS011;64990;51.698;-0.292;2022-12-07T13:14:55;17.13;;;6.57;;
76208;SDS011;64990;51.698;-0.292;2022-12-07T13:20:00;12.63;;;5.78;;
76208;SDS011;64990;51.698;-0.292;2022-12-07T13:25:01;19.80;;;5.88;;
76208;SDS011;64990;51.698;-0.292;2022-12-07T13:27:28;13.50;;;5.85;;
76208;SDS011;64990;51.698;-0.292;2022-12-07T13:29:55;11.77;;;5.00;;
76208;SDS011;64990;51.698;-0.292;2022-12-07T13:32:26;16.38;;;6.65;;
76208;SDS011;64990;51.698;-0.292;2022-12-07T13:34:52;7.38;;;5.07;;
76208;SDS011;64990;51.698;-0.292;2022-12-07T13:37:32;16.50;;;6.05;;
76208;SDS011;64990;51.698;-0.292;2022-12-07T13:39:59;9.15;;;5.03;;
76208;SDS011;64990;51.698;-0.292;2022-12-07T13:44:51;13.25;;;5.10;;
76208;SDS011;64990;51.698;-0.292;2022-12-07T13:47:20;11.75;;;4.45;;
76208;SDS011;64990;51.698;-0.292;2022-12-07T13:49:53;12.98;;;6.15;;
76208;SDS011;64990;51.698;-0.292;2022-12-07T13:52:24;11.18;;;5.18;;
76208;SDS011;64990;51.698;-0.292;2022-12-07T13:57:33;23.70;;;6.47;;
76208;SDS011;64990;51.698;-0.292;2022-12-07T14:00:13;10.07;;;3.65;;
76208;SDS011;64990;51.698;-0.292;2022-12-07T14:02:57;17.65;;;4.97;;
76208;SDS011;64990;51.698;-0.292;2022-12-07T14:05:34;10.75;;;4.45;;
76208;SDS011;64990;51.698;-0.292;2022-12-07T14:10:40;10.43;;;4.13;;
76208;SDS011;64990;51.698;-0.292;2022-12-07T14:15:49;12.00;;;4.85;;
76208;SDS011;64990;51.698;-0.292;2022-12-07T14:21:18;10.32;;;3.97;;
76208;SDS011;64990;51.698;-0.292;2022-12-07T14:23:44;11.30;;;2.85;;
76208;SDS011;64990;51.698;-0.292;2022-12-07T14:26:14;6.18;;;3.85;;
76208;SDS011;64990;51.698;-0.292;2022-12-07T14:28:41;16.33;;;5.22;;
76208;SDS011;64990;51.698;-0.292;2022-12-07T14:31:14;18.02;;;6.13;;
76208;SDS011;64990;51.698;-0.292;2022-12-07T14:33:41;14.95;;;5.20;;
76208;SDS011;64990;51.698;-0.292;2022-12-07T14:36:10;15.13;;;5.40;;
76208;SDS011;64990;51.698;-0.292;2022-12-07T14:38:36;15.25;;;4.47;;
76208;SDS011;64990;51.698;-0.292;2022-12-07T14:41:03;20.08;;;4.50;;
76208;SDS011;64990;51.698;-0.292;2022-12-07T14:43:48;12.80;;;5.40;;
76208;SDS011;64990;51.698;-0.292;2022-12-07T14:46:14;11.00;;;5.53;;
76208;SDS011;64990;51.698;-0.292;2022-12-07T14:48:40;19.50;;;4.95;;
76208;SDS011;64990;51.698;-0.292;2022-12-07T14:51:07;9.15;;;4.20;;
76208;SDS011;64990;51.698;-0.292;2022-12-07T14:53:37;22.77;;;6.28;;
76208;SDS011;64990;51.698;-0.292;2022-12-07T14:56:05;21.65;;;8.10;;
76208;SDS011;64990;51.698;-0.292;2022-12-07T14:58:31;15.93;;;4.28;;
76208;SDS011;64990;51.698;-0.292;2022-12-07T15:00:57;14.73;;;6.05;;
76208;SDS011;64990;51.698;-0.292;2022-12-07T15:03:23;13.95;;;5.05;;
76208;SDS011;64990;51.698;-0.292;2022-12-07T15:05:49;18.73;;;6.80;;
76208;SDS011;64990;51.698;-0.292;2022-12-07T15:08:15;10.68;;;6.03;;
76208;SDS011;64990;51.698;-0.292;2022-12-07T15:10:41;19.30;;;5.28;;
76208;SDS011;64990;51.698;-0.292;2022-12-07T15:13:08;14.82;;;5.63;;
76208;SDS011;64990;51.698;-0.292;2022-12-07T15:15:53;18.27;;;5.78;;
76208;SDS011;64990;51.698;-0.292;2022-12-07T15:18:20;17.67;;;6.40;;
76208;SDS011;64990;51.698;-0.292;2022-12-07T15:20:46;13.88;;;5.65;;
76208;SDS011;64990;51.698;-0.292;2022-12-07T15:23:13;13.32;;;5.63;;
76208;SDS011;64990;51.698;-0.292;2022-12-07T15:25:42;9.35;;;5.53;;
76208;SDS011;64990;51.698;-0.292;2022-12-07T15:28:08;12.63;;;5.80;;
76208;SDS011;64990;51.698;-0.292;2022-12-07T15:30:36;13.65;;;6.05;;
76208;SDS011;64990;51.698;-0.292;2022-12-07T15:33:02;15.55;;;6.70;;
76208;SDS011;64990;51.698;-0.292;2022-12-07T15:35:29;20.02;;;9.10;;
76208;SDS011;64990;51.698;-0.292;2022-12-07T15:37:55;18.23;;;6.35;;
76208;SDS011;64990;51.698;-0.292;2022-12-07T15:40:21;24.80;;;7.57;;
76208;SDS011;64990;51.698;-0.292;2022-12-07T15:42:47;16.13;;;5.93;;
76208;SDS011;64990;51.698;-0.292;2022-12-07T15:45:13;12.15;;;6.18;;
76208;SDS011;64990;51.698;-0.292;2022-12-07T15:47:40;23.58;;;6.95;;
76208;SDS011;64990;51.698;-0.292;2022-12-07T15:50:07;13.18;;;6.38;;
76208;SDS011;64990;51.698;-0.292;2022-12-07T15:52:34;22.45;;;6.72;;
76208;SDS011;64990;51.698;-0.292;2022-12-07T15:55:00;24.38;;;6.65;;
76208;SDS011;64990;51.698;-0.292;2022-12-07T15:57:28;12.07;;;6.18;;
76208;SDS011;64990;51.698;-0.292;2022-12-07T15:59:54;20.17;;;7.60;;
76208;SDS011;64990;51.698;-0.292;2022-12-07T16:02:20;16.35;;;7.30;;
76208;SDS011;64990;51.698;-0.292;2022-12-07T16:04:47;13.70;;;7.55;;
76208;SDS011;64990;51.698;-0.292;2022-12-07T16:07:14;19.90;;;7.15;;
76208;SDS011;64990;51.698;-0.292;2022-12-07T16:09:41;16.08;;;7.32;;
76208;SDS011;64990;51.698;-0.292;2022-12-07T16:12:07;18.92;;;8.38;;
76208;SDS011;64990;51.698;-0.292;2022-12-07T16:14:33;25.70;;;6.80;;
76208;SDS011;64990;51.698;-0.292;2022-12-07T16:17:00;17.30;;;6.68;;
76208;SDS011;64990;51.698;-0.292;2022-12-07T16:19:26;21.88;;;8.15;;
76208;SDS011;64990;51.698;-0.292;2022-12-07T16:21:52;17.13;;;7.50;;
76208;SDS011;64990;51.698;-0.292;2022-12-07T16:24:18;15.63;;;7.65;;
76208;SDS011;64990;51.698;-0.292;2022-12-07T16:26:45;18.27;;;7.28;;